createdAt,value
2023-03-17T00:02:39.179Z,100702.70
2023-03-17T00:07:48.406Z,100693.05
2023-03-17T00:12:56.793Z,100682.21
2023-03-17T00:18:05.468Z,100683.20
2023-03-17T00:23:19.311Z,100676.53
2023-03-17T00:28:29.202Z,100672.34
2023-03-17T00:33:38.388Z,100675.23
2023-03-17T00:38:47.742Z,100675.17
2023-03-17T00:43:56.005Z,100671.34
2023-03-17T00:49:05.652Z,100672.30
2023-03-17T00:54:15.959Z,100679.90
2023-03-17T00:59:37.752Z,100679.52
2023-03-17T01:04:59.544Z,100679.30
2023-03-17T01:10:19.929Z,100674.59
2023-03-17T01:15:30.746Z,100674.58
2023-03-17T01:20:39.884Z,100670.23
2023-03-17T01:25:48.162Z,100663.64
2023-03-17T01:30:57.270Z,100662.91
2023-03-17T01:36:05.915Z,100662.20
2023-03-17T01:41:14.834Z,100650.44
2023-03-17T01:46:30.590Z,100667.50
2023-03-17T01:51:44.832Z,100672.83
2023-03-17T01:56:55.664Z,100673.46
2023-03-17T02:02:11.246Z,100673.94
2023-03-17T02:07:19.255Z,100680.05
2023-03-17T02:12:29.388Z,100685.83
2023-03-17T02:17:37.540Z,100684.35
2023-03-17T02:22:44.933Z,100681.14
2023-03-17T02:27:58.697Z,100683.65
2023-03-17T02:33:06.465Z,100685.10
2023-03-17T02:38:14.098Z,100688.28
2023-03-17T02:43:21.893Z,100689.73
2023-03-17T02:48:31.067Z,100695.14
2023-03-17T02:53:39.212Z,100699.02
2023-03-17T02:58:47.815Z,100705.32
2023-03-17T03:03:55.991Z,100707.83
2023-03-17T03:09:04.309Z,100709.81
2023-03-17T03:14:13.205Z,100705.42
2023-03-17T03:19:22.820Z,100708.46
2023-03-17T03:24:30.974Z,100713.73
2023-03-17T03:29:39.292Z,100706.80
2023-03-17T03:34:47.578Z,100719.36
2023-03-17T03:39:56.205Z,100713.49
2023-03-17T03:45:04.657Z,100710.55
2023-03-17T03:50:14.755Z,100703.98
2023-03-17T03:55:23.230Z,100704.34
2023-03-17T04:00:32.805Z,100705.54
2023-03-17T04:05:42.324Z,100708.49
2023-03-17T04:10:50.499Z,100709.18
2023-03-17T04:15:58.335Z,100708.32
2023-03-17T04:21:08.111Z,100702.46
2023-03-17T04:26:18.225Z,100707.98
2023-03-17T04:31:26.299Z,100702.98
2023-03-17T04:36:33.925Z,100704.92
2023-03-17T04:41:41.795Z,100707.02
2023-03-17T04:46:50.172Z,100706.35
2023-03-17T04:51:58.868Z,100711.55
2023-03-17T04:57:07.758Z,100711.06
2023-03-17T05:02:16.260Z,100719.96
2023-03-17T05:07:24.826Z,100719.06
2023-03-17T05:12:33.255Z,100714.55
2023-03-17T05:17:42.188Z,100721.30
2023-03-17T05:22:50.380Z,100725.48
2023-03-17T05:27:59.106Z,100732.96
2023-03-17T05:33:08.174Z,100733.73
2023-03-17T05:38:17.584Z,100735.54
2023-03-17T05:43:25.817Z,100727.98
2023-03-17T05:48:34.027Z,100735.48
2023-03-17T05:53:42.353Z,100733.45
2023-03-17T05:58:50.691Z,100733.09
2023-03-17T06:04:01.835Z,100741.25
2023-03-17T06:09:10.944Z,100741.26
2023-03-17T06:14:18.677Z,100737.45
2023-03-17T06:19:27.893Z,100742.12
2023-03-17T06:24:35.574Z,100744.69
2023-03-17T06:29:43.137Z,100759.73
2023-03-17T06:34:51.682Z,100759.20
2023-03-17T06:40:01.380Z,100756.20
2023-03-17T06:45:10.746Z,100763.59
2023-03-17T06:50:19.328Z,100775.51
2023-03-17T06:55:27.802Z,100785.34
2023-03-17T07:00:35.985Z,100797.73
2023-03-17T07:05:44.562Z,100799.42
2023-03-17T07:10:53.200Z,100803.55
2023-03-17T07:16:01.622Z,100810.96
2023-03-17T07:21:10.973Z,100796.71
2023-03-17T07:28:45.612Z,100792.88
2023-03-17T07:34:09.023Z,100775.61
2023-03-17T07:39:17.790Z,100775.11
2023-03-17T07:44:27.994Z,100763.44
2023-03-17T07:49:41.706Z,100752.97
2023-03-17T07:54:52.003Z,100750.46
2023-03-17T08:00:00.275Z,100743.08
2023-03-17T08:05:09.455Z,100748.88
2023-03-17T08:10:18.719Z,100747.89
2023-03-17T08:15:27.120Z,100755.06
2023-03-17T08:20:36.069Z,100760.84
2023-03-17T08:25:44.307Z,100767.47
2023-03-17T08:30:52.163Z,100765.05
2023-03-17T08:36:00.626Z,100759.51
2023-03-17T08:41:12.719Z,100762.98
2023-03-17T08:46:23.385Z,100767.34
2023-03-17T08:51:34.734Z,100766.28
2023-03-17T08:56:43.667Z,100764.69
2023-03-17T09:01:52.237Z,100766.75
2023-03-17T09:07:04.072Z,100758.35
2023-03-17T09:12:14.105Z,100768.03
2023-03-17T09:17:22.411Z,100769.14
2023-03-17T09:22:31.136Z,100767.11
2023-03-17T09:27:40.346Z,100756.67
2023-03-17T09:32:48.896Z,100758.43
2023-03-17T09:37:56.829Z,100753.23
2023-03-17T09:43:19.036Z,100755.41
2023-03-17T09:48:49.207Z,100754.09
2023-03-17T09:54:01.858Z,100754.37
2023-03-17T09:59:30.346Z,100746.30
2023-03-17T10:04:38.395Z,100739.48
2023-03-17T10:09:48.773Z,100735.08
2023-03-17T10:15:04.308Z,100735.53
2023-03-17T10:20:26.165Z,100732.83
2023-03-17T10:25:36.825Z,100722.95
2023-03-17T10:30:45.428Z,100720.42
2023-03-17T10:35:54.601Z,100708.27
2023-03-17T10:41:10.236Z,100700.85
2023-03-17T10:46:26.425Z,100692.58
2023-03-17T10:51:37.356Z,100686.78
2023-03-17T10:56:48.866Z,100683.62
2023-03-17T11:02:01.167Z,100674.48
2023-03-17T11:07:11.318Z,100667.23
2023-03-17T11:12:28.296Z,100665.77
2023-03-17T11:17:53.866Z,100654.46
2023-03-17T11:23:09.270Z,100653.13
2023-03-17T11:28:22.825Z,100638.84
2023-03-17T11:33:53.235Z,100627.73
2023-03-17T11:39:09.384Z,100626.61
2023-03-17T11:44:42.252Z,100614.48
2023-03-17T11:49:55.154Z,100609.52
2023-03-17T11:55:15.559Z,100609.09
2023-03-17T12:00:34.332Z,100606.58
2023-03-17T12:05:45.190Z,100596.35
2023-03-17T12:10:56.952Z,100587.16
2023-03-17T12:16:11.704Z,100584.29
2023-03-17T12:21:27.544Z,100588.54
2023-03-17T12:26:43.569Z,100584.02
2023-03-17T12:32:03.753Z,100579.73
2023-03-17T12:37:12.941Z,100574.18
2023-03-17T12:42:38.667Z,100571.63
2023-03-17T12:48:09.486Z,100560.34
2023-03-17T12:53:30.655Z,100561.98
2023-03-17T12:58:42.282Z,100558.84
2023-03-17T13:04:07.453Z,100566.42
2023-03-17T13:09:53.695Z,100555.11
2023-03-17T13:15:03.086Z,100546.27
2023-03-17T13:20:20.906Z,100547.59
2023-03-17T13:25:54.004Z,100527.86
2023-03-17T13:31:13.636Z,100541.98
2023-03-17T13:36:31.121Z,100523.12
2023-03-17T13:41:51.830Z,100515.46
2023-03-17T13:47:17.769Z,100515.57
2023-03-17T13:52:32.721Z,100514.98
2023-03-17T13:57:43.307Z,100510.41
2023-03-17T14:02:59.486Z,100506.38
2023-03-17T14:08:17.094Z,100495.52
2023-03-17T14:13:28.844Z,100494.48
2023-03-17T14:18:40.324Z,100493.61
2023-03-17T14:23:56.799Z,100495.39
2023-03-17T14:29:06.747Z,100480.27
2023-03-17T14:34:18.119Z,100486.34
2023-03-17T14:39:29.783Z,100483.73
2023-03-17T14:44:47.717Z,100480.60
2023-03-17T14:49:57.288Z,100465.20
2023-03-17T14:55:05.366Z,100465.92
2023-03-17T15:00:39.091Z,100471.50
2023-03-17T15:05:48.532Z,100465.09
2023-03-17T15:10:59.316Z,100467.01
2023-03-17T15:16:17.271Z,100475.46
2023-03-17T15:21:34.508Z,100479.70
2023-03-17T15:26:43.997Z,100476.42
2023-03-17T15:31:52.969Z,100467.71
2023-03-17T15:37:01.876Z,100455.69
2023-03-17T15:42:09.623Z,100462.57
2023-03-17T15:47:19.246Z,100468.27
2023-03-17T15:52:29.375Z,100478.52
2023-03-17T15:57:37.756Z,100483.36
2023-03-17T16:02:46.311Z,100484.88
2023-03-17T16:07:56.074Z,100491.64
2023-03-17T16:13:03.669Z,100493.74
2023-03-17T16:18:17.353Z,100499.67
2023-03-17T16:23:28.380Z,100499.13
2023-03-17T16:28:36.860Z,100490.17
2023-03-17T16:33:44.383Z,100491.02
2023-03-17T16:38:52.474Z,100486.63
2023-03-17T16:44:03.428Z,100487.48
2023-03-17T16:49:14.450Z,100480.64
2023-03-17T16:54:22.462Z,100477.14
2023-03-17T16:59:32.237Z,100464.88
2023-03-17T17:04:41.565Z,100456.13
2023-03-17T17:09:48.818Z,100466.28
2023-03-17T17:14:57.001Z,100468.20
2023-03-17T17:20:06.028Z,100469.56
2023-03-17T17:25:14.463Z,100459.21
2023-03-17T17:30:26.102Z,100460.91
2023-03-17T17:35:36.125Z,100468.02
2023-03-17T17:40:44.382Z,100464.14
2023-03-17T17:45:52.998Z,100460.88
2023-03-17T17:51:02.792Z,100455.57
2023-03-17T17:56:13.872Z,100453.42
2023-03-17T18:01:23.107Z,100456.83
2023-03-17T18:06:32.659Z,100455.69
2023-03-17T18:11:42.851Z,100457.01
2023-03-17T18:16:51.976Z,100454.11
2023-03-17T18:22:00.218Z,100455.75
2023-03-17T18:27:10.078Z,100455.83
2023-03-17T18:32:19.248Z,100458.69
2023-03-17T18:37:31.105Z,100445.92
2023-03-17T18:42:39.394Z,100451.47
2023-03-17T18:47:48.404Z,100451.86
2023-03-17T18:52:57.898Z,100450.16
2023-03-17T18:58:06.798Z,100441.80
2023-03-17T19:03:16.437Z,100440.98
2023-03-17T19:08:25.776Z,100440.14
2023-03-17T19:13:34.286Z,100456.23
2023-03-17T19:18:43.473Z,100455.55
2023-03-17T19:23:52.598Z,100453.28
2023-03-17T19:29:01.023Z,100445.49
2023-03-17T19:34:10.430Z,100446.40
2023-03-17T19:39:19.041Z,100442.08
2023-03-17T19:44:27.627Z,100442.28
2023-03-17T19:49:37.227Z,100444.05
2023-03-17T19:54:46.480Z,100438.30
2023-03-17T19:59:54.831Z,100438.31
2023-03-17T20:05:02.496Z,100441.81
2023-03-17T20:10:12.736Z,100444.62
2023-03-17T20:15:20.425Z,100450.59
2023-03-17T20:20:28.929Z,100444.50
2023-03-17T20:25:37.818Z,100443.27
2023-03-17T20:30:48.639Z,100435.27
2023-03-17T20:35:58.253Z,100430.94
2023-03-17T20:41:14.449Z,100423.46
2023-03-17T20:46:25.072Z,100420.55
2023-03-17T20:51:32.734Z,100425.59
2023-03-17T20:56:41.884Z,100420.90
2023-03-17T21:01:50.425Z,100425.30
2023-03-17T21:06:59.420Z,100430.39
2023-03-17T21:12:08.033Z,100430.58
2023-03-17T21:17:18.399Z,100430.95
2023-03-17T21:22:27.016Z,100434.12
2023-03-17T21:27:37.312Z,100437.64
2023-03-17T21:32:46.211Z,100444.27
2023-03-17T21:37:55.132Z,100448.48
2023-03-17T21:43:02.574Z,100448.84
2023-03-17T21:48:11.724Z,100447.98
2023-03-17T21:53:20.575Z,100443.80
2023-03-17T21:58:29.696Z,100446.09
2023-03-17T22:03:40.180Z,100452.55
2023-03-17T22:08:51.123Z,100455.02
2023-03-17T22:14:00.177Z,100446.48
2023-03-17T22:19:10.336Z,100441.80
2023-03-17T22:24:19.277Z,100437.63
2023-03-17T22:29:28.301Z,100436.61
2023-03-17T22:34:37.213Z,100435.40
2023-03-17T22:39:45.942Z,100434.38
2023-03-17T22:44:54.500Z,100427.61
2023-03-17T22:50:03.157Z,100428.49
2023-03-17T22:55:12.685Z,100426.60
2023-03-17T23:00:21.917Z,100429.23
2023-03-17T23:05:30.159Z,100424.73
2023-03-17T23:10:40.332Z,100421.80
2023-03-17T23:15:47.896Z,100418.16
2023-03-17T23:20:55.510Z,100414.52
2023-03-17T23:26:03.482Z,100417.35
2023-03-17T23:31:11.416Z,100411.25
2023-03-17T23:36:19.890Z,100412.31
2023-03-17T23:41:27.465Z,100409.38
2023-03-17T23:46:36.103Z,100405.39
2023-03-17T23:51:44.453Z,100398.42
2023-03-17T23:56:53.083Z,100393.56
